createdAt,value
2019-01-15T00:02:29.763Z,2.20
2019-01-15T00:04:58.795Z,2.20
2019-01-15T00:07:27.717Z,2.20
2019-01-15T00:09:58.291Z,2.20
2019-01-15T00:12:33.142Z,2.20
2019-01-15T00:15:05.244Z,2.30
2019-01-15T00:17:34.210Z,2.30
2019-01-15T00:20:03.613Z,2.30
2019-01-15T00:22:32.612Z,2.40
2019-01-15T00:25:04.282Z,2.40
2019-01-15T00:27:33.297Z,2.50
2019-01-15T00:30:02.212Z,2.50
2019-01-15T00:32:31.127Z,2.50
2019-01-15T00:35:00.009Z,2.50
2019-01-15T00:37:30.872Z,2.60
2019-01-15T00:39:59.356Z,2.60
2019-01-15T00:42:28.413Z,2.70
2019-01-15T00:44:57.303Z,2.70
2019-01-15T00:47:26.193Z,2.60
2019-01-15T00:49:55.019Z,2.50
2019-01-15T00:52:23.786Z,2.50
2019-01-15T00:54:52.621Z,2.50
2019-01-15T00:57:21.731Z,2.50
2019-01-15T00:59:50.803Z,2.50
2019-01-15T01:02:19.742Z,2.50
2019-01-15T01:04:48.561Z,2.40
2019-01-15T01:07:17.559Z,2.40
2019-01-15T01:09:46.709Z,2.40
2019-01-15T01:12:22.039Z,2.40
2019-01-15T01:14:46.501Z,2.40
2019-01-15T01:17:15.710Z,2.50
2019-01-15T01:19:46.093Z,2.50
2019-01-15T01:22:15.121Z,2.50
2019-01-15T01:24:44.273Z,2.50
2019-01-15T01:27:13.077Z,2.50
2019-01-15T01:29:41.958Z,2.50
2019-01-15T01:32:10.871Z,2.40
2019-01-15T01:34:40.171Z,2.40
2019-01-15T01:37:09.436Z,2.50
2019-01-15T01:39:38.611Z,2.50
2019-01-15T01:42:07.661Z,2.50
2019-01-15T01:44:39.787Z,2.60
2019-01-15T01:47:11.685Z,2.70
2019-01-15T01:49:43.768Z,2.60
2019-01-15T01:52:12.645Z,2.70
2019-01-15T01:54:41.539Z,2.70
2019-01-15T01:57:10.551Z,2.60
2019-01-15T01:59:39.635Z,2.60
2019-01-15T02:02:08.620Z,2.50
2019-01-15T02:04:37.602Z,2.50
2019-01-15T02:07:06.611Z,2.40
2019-01-15T02:09:35.555Z,2.40
2019-01-15T02:12:04.429Z,2.50
2019-01-15T02:14:34.683Z,2.50
2019-01-15T02:17:03.690Z,2.50
2019-01-15T02:19:32.678Z,2.50
2019-01-15T02:22:02.876Z,2.50
2019-01-15T02:24:33.631Z,2.60
2019-01-15T02:27:04.722Z,2.60
2019-01-15T02:29:34.002Z,2.70
2019-01-15T02:32:03.030Z,2.70
2019-01-15T02:34:34.568Z,2.80
2019-01-15T02:37:03.614Z,2.90
2019-01-15T02:39:35.795Z,2.90
2019-01-15T02:42:05.391Z,2.90
2019-01-15T02:44:36.136Z,3.00
2019-01-15T02:47:05.287Z,3.10
2019-01-15T02:49:34.134Z,3.10
2019-01-15T02:52:02.999Z,3.10
2019-01-15T02:54:32.778Z,3.10
2019-01-15T02:57:06.346Z,3.00
2019-01-15T02:59:38.857Z,3.00
2019-01-15T03:02:08.002Z,2.90
2019-01-15T03:04:36.932Z,3.00
2019-01-15T03:07:08.634Z,3.00
2019-01-15T03:09:40.327Z,3.00
2019-01-15T03:12:12.899Z,2.90
2019-01-15T03:14:48.062Z,2.80
2019-01-15T03:17:20.002Z,2.80
2019-01-15T03:19:48.881Z,2.70
2019-01-15T03:22:22.621Z,2.60
2019-01-15T03:24:54.110Z,2.60
2019-01-15T03:27:23.550Z,2.60
2019-01-15T03:29:56.954Z,2.50
2019-01-15T03:32:26.414Z,2.50
2019-01-15T03:34:55.759Z,2.40
2019-01-15T03:37:28.021Z,2.40
2019-01-15T03:39:56.890Z,2.30
2019-01-15T03:42:31.547Z,2.30
2019-01-15T03:45:02.421Z,2.30
2019-01-15T03:47:53.976Z,2.20
2019-01-15T03:50:32.237Z,2.30
2019-01-15T03:53:01.448Z,2.40
2019-01-15T03:55:30.548Z,2.40
2019-01-15T03:58:00.181Z,2.50
2019-01-15T04:00:29.779Z,2.50
2019-01-15T04:02:58.935Z,2.60
2019-01-15T04:05:27.980Z,2.70
2019-01-15T04:08:00.007Z,2.70
2019-01-15T04:10:31.101Z,2.80
2019-01-15T04:13:00.163Z,2.80
2019-01-15T04:15:29.197Z,2.80
2019-01-15T04:18:00.620Z,2.90
2019-01-15T04:20:38.613Z,2.90
2019-01-15T04:23:10.986Z,2.90
2019-01-15T04:25:44.684Z,3.00
2019-01-15T04:28:16.806Z,2.90
2019-01-15T04:30:48.766Z,2.80
2019-01-15T04:33:19.062Z,2.70
2019-01-15T04:35:50.813Z,2.60
2019-01-15T04:38:19.687Z,2.60
2019-01-15T04:40:48.713Z,2.60
2019-01-15T04:43:19.894Z,2.80
2019-01-15T04:45:49.083Z,2.80
2019-01-15T04:48:18.207Z,2.90
2019-01-15T04:51:00.461Z,3.00
2019-01-15T04:53:29.342Z,3.00
2019-01-15T04:55:58.669Z,3.10
2019-01-15T04:58:27.804Z,3.10
2019-01-15T05:01:00.895Z,3.10
2019-01-15T05:03:29.543Z,3.10
2019-01-15T05:05:58.631Z,3.10
2019-01-15T05:08:27.575Z,3.20
2019-01-15T05:10:56.459Z,3.20
2019-01-15T05:13:27.483Z,3.20
2019-01-15T05:15:56.256Z,3.20
2019-01-15T05:18:25.305Z,3.30
2019-01-15T05:21:00.179Z,3.30
2019-01-15T05:23:29.253Z,3.30
2019-01-15T05:25:58.371Z,3.40
2019-01-15T05:28:30.241Z,3.40
2019-01-15T05:30:59.260Z,3.50
2019-01-15T05:33:28.905Z,3.50
2019-01-15T05:35:58.089Z,3.50
2019-01-15T05:38:33.824Z,3.50
2019-01-15T05:41:06.056Z,3.50
2019-01-15T05:43:35.991Z,3.50
2019-01-15T05:46:05.317Z,3.50
2019-01-15T05:48:36.484Z,3.60
2019-01-15T05:51:23.842Z,3.50
2019-01-15T05:53:52.828Z,3.60
2019-01-15T05:56:21.744Z,3.70
2019-01-15T05:58:50.715Z,3.70
2019-01-15T06:01:19.863Z,3.70
2019-01-15T06:03:48.977Z,3.70
2019-01-15T06:06:18.276Z,3.70
2019-01-15T06:08:47.292Z,3.70
2019-01-15T06:11:16.171Z,3.70
2019-01-15T06:13:46.330Z,3.70
2019-01-15T06:16:15.543Z,3.70
2019-01-15T06:18:47.071Z,3.80
2019-01-15T06:21:16.133Z,3.70
2019-01-15T06:23:45.102Z,3.80
2019-01-15T06:26:14.021Z,3.80
2019-01-15T06:28:44.787Z,3.80
2019-01-15T06:31:14.944Z,3.80
2019-01-15T06:33:44.064Z,3.80
2019-01-15T06:36:13.427Z,3.90
2019-01-15T06:38:43.690Z,3.90
2019-01-15T06:41:12.607Z,3.90
2019-01-15T06:43:41.715Z,3.90
2019-01-15T06:46:10.632Z,3.90
2019-01-15T06:48:41.067Z,4.00
2019-01-15T06:51:10.235Z,4.00
2019-01-15T06:53:39.231Z,4.00
2019-01-15T06:56:08.170Z,4.00
2019-01-15T06:58:37.000Z,4.00
2019-01-15T07:01:08.874Z,4.00
2019-01-15T07:03:37.864Z,4.00
2019-01-15T07:06:07.048Z,4.00
2019-01-15T07:08:35.977Z,4.00
2019-01-15T07:11:20.640Z,4.00
2019-01-15T07:13:57.039Z,4.00
2019-01-15T07:16:21.779Z,4.00
2019-01-15T07:18:53.193Z,3.90
2019-01-15T07:21:22.194Z,4.00
2019-01-15T07:23:51.298Z,4.00
2019-01-15T07:26:20.228Z,4.00
2019-01-15T07:28:49.102Z,3.90
2019-01-15T07:31:17.932Z,3.90
2019-01-15T07:33:46.734Z,4.00
2019-01-15T07:36:15.718Z,4.00
2019-01-15T07:38:44.628Z,4.00
2019-01-15T07:41:13.634Z,4.00
2019-01-15T07:43:42.540Z,4.00
2019-01-15T07:46:11.460Z,4.00
2019-01-15T07:48:40.271Z,4.00
2019-01-15T07:51:09.208Z,4.00
2019-01-15T07:53:38.097Z,4.00
2019-01-15T07:56:06.999Z,4.10
2019-01-15T07:58:35.783Z,4.10
2019-01-15T08:01:05.085Z,4.10
2019-01-15T08:03:34.073Z,4.10
2019-01-15T08:06:03.243Z,4.10
2019-01-15T08:08:32.187Z,4.10
2019-01-15T08:11:01.291Z,4.20
2019-01-15T08:13:30.220Z,4.20
2019-01-15T08:15:59.203Z,4.20
2019-01-15T08:18:28.308Z,4.20
2019-01-15T08:20:58.763Z,4.20
2019-01-15T08:23:27.605Z,4.20
2019-01-15T08:25:56.432Z,4.20
2019-01-15T08:28:25.327Z,4.20
2019-01-15T08:30:54.398Z,4.10
2019-01-15T08:33:23.417Z,4.10
2019-01-15T08:35:52.427Z,4.10
2019-01-15T08:38:21.331Z,4.20
2019-01-15T08:40:50.361Z,4.20
2019-01-15T08:43:21.029Z,4.20
2019-01-15T08:45:49.961Z,4.20
2019-01-15T08:48:20.525Z,4.20
2019-01-15T08:50:50.740Z,4.20
2019-01-15T08:53:22.800Z,4.20
2019-01-15T08:55:55.285Z,4.20
2019-01-15T08:58:24.453Z,4.20
2019-01-15T09:00:53.503Z,4.30
2019-01-15T09:03:22.942Z,4.30
2019-01-15T09:05:51.831Z,4.30
2019-01-15T09:08:20.849Z,4.30
2019-01-15T09:10:49.942Z,4.30
2019-01-15T09:13:18.903Z,4.30
2019-01-15T09:15:47.834Z,4.30
2019-01-15T09:18:16.850Z,4.30
2019-01-15T09:20:45.830Z,4.30
2019-01-15T09:23:14.892Z,4.30
2019-01-15T09:25:46.658Z,4.30
2019-01-15T09:28:15.752Z,4.30
2019-01-15T09:30:44.591Z,4.20
2019-01-15T09:33:16.273Z,4.20
2019-01-15T09:35:45.126Z,4.10
2019-01-15T09:38:16.888Z,4.10
2019-01-15T09:40:46.261Z,4.10
2019-01-15T09:43:16.908Z,4.10
2019-01-15T09:45:48.225Z,4.10
2019-01-15T09:48:23.896Z,4.20
2019-01-15T09:50:58.641Z,4.20
2019-01-15T09:53:33.346Z,4.30
2019-01-15T09:56:02.374Z,4.40
2019-01-15T09:58:31.520Z,4.40
2019-01-15T10:01:00.446Z,4.30
2019-01-15T10:03:29.384Z,4.30
2019-01-15T10:05:58.250Z,4.30
2019-01-15T10:08:27.261Z,4.30
2019-01-15T10:10:56.140Z,4.30
2019-01-15T10:13:25.093Z,4.30
2019-01-15T10:15:54.187Z,4.30
2019-01-15T10:18:23.100Z,4.30
2019-01-15T10:20:52.082Z,4.30
2019-01-15T10:23:21.052Z,4.30
2019-01-15T10:25:51.646Z,4.30
2019-01-15T10:28:20.702Z,4.30
2019-01-15T10:31:41.160Z,4.30
2019-01-15T10:34:15.725Z,4.30
2019-01-15T10:36:43.294Z,4.40
2019-01-15T10:39:13.375Z,4.50
2019-01-15T10:41:42.331Z,4.50
2019-01-15T10:44:17.972Z,4.60
2019-01-15T10:46:46.870Z,4.60
2019-01-15T10:49:15.816Z,4.60
2019-01-15T10:51:44.887Z,4.70
2019-01-15T10:54:13.718Z,4.70
2019-01-15T10:56:42.734Z,4.90
2019-01-15T10:59:11.762Z,4.90
2019-01-15T11:01:40.912Z,5.00
2019-01-15T11:04:09.867Z,5.10
2019-01-15T11:06:38.781Z,5.20
2019-01-15T11:09:09.176Z,5.30
2019-01-15T11:11:38.471Z,5.30
2019-01-15T11:14:08.569Z,5.30
2019-01-15T11:16:37.397Z,5.30
2019-01-15T11:19:06.261Z,5.30
2019-01-15T11:21:35.296Z,5.30
2019-01-15T11:24:04.692Z,5.20
2019-01-15T11:26:33.565Z,5.20
2019-01-15T11:29:03.970Z,5.20
2019-01-15T11:31:32.705Z,5.20
2019-01-15T11:34:01.622Z,5.20
2019-01-15T11:36:30.443Z,5.20
2019-01-15T11:38:59.504Z,5.20
2019-01-15T11:41:28.341Z,5.20
2019-01-15T11:43:57.153Z,5.20
2019-01-15T11:46:26.093Z,5.20
2019-01-15T11:48:55.072Z,5.10
2019-01-15T11:51:23.873Z,5.00
2019-01-15T11:53:52.733Z,4.90
2019-01-15T11:56:21.640Z,4.90
2019-01-15T11:58:51.154Z,4.90
2019-01-15T12:01:39.170Z,4.90
2019-01-15T12:04:30.307Z,4.80
2019-01-15T12:07:16.749Z,4.90
2019-01-15T12:10:03.202Z,4.90
2019-01-15T12:12:40.774Z,4.90
2019-01-15T12:15:28.264Z,4.90
2019-01-15T12:18:17.456Z,5.00
2019-01-15T12:21:10.070Z,5.10
2019-01-15T12:23:58.167Z,5.20
2019-01-15T12:26:53.016Z,5.20
2019-01-15T12:29:32.853Z,5.20
2019-01-15T12:32:35.864Z,5.20
2019-01-15T12:35:36.732Z,5.30
2019-01-15T12:38:23.342Z,5.30
2019-01-15T12:41:11.156Z,5.30
2019-01-15T12:44:06.444Z,5.30
2019-01-15T12:47:09.622Z,5.30
2019-01-15T12:50:15.574Z,5.30
2019-01-15T12:53:03.767Z,5.20
2019-01-15T12:55:43.936Z,5.20
2019-01-15T12:58:34.942Z,5.20
2019-01-15T13:01:15.995Z,5.10
2019-01-15T13:04:14.917Z,5.10
2019-01-15T13:07:05.916Z,5.10
2019-01-15T13:09:52.764Z,5.10
2019-01-15T13:12:56.236Z,5.10
2019-01-15T13:15:44.215Z,5.10
2019-01-15T13:18:38.085Z,5.10
2019-01-15T13:21:24.702Z,5.10
2019-01-15T13:24:10.492Z,5.10
2019-01-15T13:26:46.868Z,5.10
2019-01-15T13:29:34.840Z,5.20
2019-01-15T13:32:24.771Z,5.10
2019-01-15T13:35:10.712Z,5.00
2019-01-15T13:38:01.936Z,5.00
2019-01-15T13:41:02.616Z,5.00
2019-01-15T13:43:58.018Z,5.00
2019-01-15T13:46:48.996Z,5.00
2019-01-15T13:49:35.560Z,5.10
2019-01-15T13:52:25.928Z,5.10
2019-01-15T13:55:32.168Z,5.10
2019-01-15T13:58:12.343Z,5.20
2019-01-15T14:01:09.694Z,5.20
2019-01-15T14:03:54.626Z,5.30
2019-01-15T14:06:35.553Z,5.30
2019-01-15T14:09:29.931Z,5.20
2019-01-15T14:12:35.868Z,5.20
2019-01-15T14:15:24.833Z,5.20
2019-01-15T14:18:27.732Z,5.30
2019-01-15T14:21:17.549Z,5.30
2019-01-15T14:23:54.391Z,5.30
2019-01-15T14:26:35.404Z,5.30
2019-01-15T14:29:36.630Z,5.30
2019-01-15T14:32:19.111Z,5.30
2019-01-15T14:35:12.037Z,5.30
2019-01-15T14:38:05.431Z,5.30
2019-01-15T14:41:02.491Z,5.30
2019-01-15T14:43:59.863Z,5.30
2019-01-15T14:46:53.945Z,5.30
2019-01-15T14:49:32.836Z,5.30
2019-01-15T14:52:20.977Z,5.30
2019-01-15T14:55:41.464Z,5.30
2019-01-15T14:58:41.469Z,5.40
2019-01-15T15:01:38.400Z,5.40
2019-01-15T15:04:28.655Z,5.40
2019-01-15T15:07:26.178Z,5.50
2019-01-15T15:10:10.170Z,5.50
2019-01-15T15:13:01.231Z,5.50
2019-01-15T15:15:43.973Z,5.50
2019-01-15T15:18:26.139Z,5.50
2019-01-15T15:21:17.112Z,5.60
2019-01-15T15:24:03.451Z,5.60
2019-01-15T15:26:47.853Z,5.60
2019-01-15T15:29:34.313Z,5.60
2019-01-15T15:32:16.530Z,5.60
2019-01-15T15:35:03.566Z,5.70
2019-01-15T15:37:47.580Z,5.70
2019-01-15T15:40:35.334Z,5.70
2019-01-15T15:43:35.768Z,5.70
2019-01-15T15:46:25.047Z,5.80
2019-01-15T15:49:28.032Z,5.80
2019-01-15T15:52:14.744Z,5.80
2019-01-15T15:55:15.040Z,5.80
2019-01-15T15:57:59.464Z,5.80
2019-01-15T16:00:38.954Z,5.80
2019-01-15T16:03:25.590Z,5.80
2019-01-15T16:06:05.342Z,5.80
2019-01-15T16:09:05.204Z,5.80
2019-01-15T16:11:51.797Z,5.80
2019-01-15T16:14:30.577Z,5.80
2019-01-15T16:17:18.460Z,5.90
2019-01-15T16:19:59.818Z,5.90
2019-01-15T16:22:46.538Z,5.90
2019-01-15T16:25:40.399Z,5.90
2019-01-15T16:28:30.988Z,5.90
2019-01-15T16:31:18.504Z,5.90
2019-01-15T16:34:10.860Z,6.00
2019-01-15T16:36:57.407Z,6.00
2019-01-15T16:39:39.040Z,6.00
2019-01-15T16:42:38.912Z,6.00
2019-01-15T16:45:26.824Z,6.00
2019-01-15T16:48:09.367Z,6.00
2019-01-15T16:51:12.265Z,6.10
2019-01-15T16:54:02.081Z,6.10
2019-01-15T16:56:50.146Z,6.10
2019-01-15T16:59:36.696Z,6.10
2019-01-15T17:02:35.276Z,6.20
2019-01-15T17:05:39.312Z,6.20
2019-01-15T17:08:28.813Z,6.20
2019-01-15T17:11:35.262Z,6.20
2019-01-15T17:14:22.269Z,6.20
2019-01-15T17:17:13.386Z,6.20
2019-01-15T17:20:01.337Z,6.20
2019-01-15T17:22:47.728Z,6.20
2019-01-15T17:25:28.999Z,6.20
2019-01-15T17:28:25.719Z,6.20
2019-01-15T17:31:13.619Z,6.10
2019-01-15T17:34:03.986Z,6.20
2019-01-15T17:36:48.562Z,6.30
2019-01-15T17:39:36.742Z,6.30
2019-01-15T17:42:30.078Z,6.30
2019-01-15T17:45:14.765Z,6.40
2019-01-15T17:48:01.245Z,6.40
2019-01-15T17:50:58.354Z,6.40
2019-01-15T17:53:47.975Z,6.50
2019-01-15T17:56:34.787Z,6.50
2019-01-15T17:59:37.881Z,6.50
2019-01-15T18:02:34.833Z,6.60
2019-01-15T18:05:26.041Z,6.60
2019-01-15T18:08:12.471Z,6.60
2019-01-15T18:11:00.415Z,6.70
2019-01-15T18:13:51.649Z,6.60
2019-01-15T18:16:48.702Z,6.60
2019-01-15T18:19:22.416Z,6.60
2019-01-15T18:22:10.042Z,6.60
2019-01-15T18:24:56.585Z,6.60
2019-01-15T18:27:36.876Z,6.60
2019-01-15T18:30:38.796Z,6.60
2019-01-15T18:33:30.559Z,6.60
2019-01-15T18:36:16.295Z,6.60
2019-01-15T18:39:01.544Z,6.60
2019-01-15T18:41:58.227Z,6.60
2019-01-15T18:44:49.443Z,6.60
2019-01-15T18:47:49.398Z,6.70
2019-01-15T18:50:32.348Z,6.70
2019-01-15T18:53:07.338Z,6.70
2019-01-15T18:55:58.270Z,6.70
2019-01-15T18:58:38.585Z,6.70
2019-01-15T19:01:15.270Z,6.70
2019-01-15T19:03:57.800Z,6.80
2019-01-15T19:06:55.078Z,6.80
2019-01-15T19:09:55.683Z,6.80
2019-01-15T19:12:42.117Z,6.90
2019-01-15T19:15:43.161Z,6.90
2019-01-15T19:18:22.959Z,6.90
2019-01-15T19:21:11.363Z,7.00
2019-01-15T19:23:55.206Z,7.00
2019-01-15T19:26:43.379Z,7.00
2019-01-15T19:29:25.664Z,7.00
2019-01-15T19:32:23.523Z,7.10
2019-01-15T19:35:04.845Z,7.00
2019-01-15T19:38:02.050Z,7.00
2019-01-15T19:40:48.917Z,7.00
2019-01-15T19:43:46.432Z,6.90
2019-01-15T19:46:52.693Z,6.80
2019-01-15T19:50:03.970Z,6.80
2019-01-15T19:52:50.906Z,6.80
2019-01-15T19:55:47.831Z,6.80
2019-01-15T19:58:26.534Z,6.90
2019-01-15T20:01:32.508Z,6.90
2019-01-15T20:04:13.945Z,6.90
2019-01-15T20:07:06.359Z,6.90
2019-01-15T20:09:53.152Z,6.90
2019-01-15T20:12:32.706Z,6.90
2019-01-15T20:15:33.125Z,6.90
2019-01-15T20:18:19.890Z,7.00
2019-01-15T20:21:17.064Z,7.00
2019-01-15T20:24:08.403Z,7.00
2019-01-15T20:26:46.451Z,7.00
2019-01-15T20:29:24.006Z,6.90
2019-01-15T20:32:17.965Z,6.90
2019-01-15T20:35:03.953Z,6.80
2019-01-15T20:37:50.834Z,6.80
2019-01-15T20:40:42.612Z,6.70
2019-01-15T20:43:30.976Z,6.70
2019-01-15T20:46:11.490Z,6.70
2019-01-15T20:48:59.322Z,6.60
2019-01-15T20:52:06.906Z,6.60
2019-01-15T20:54:53.692Z,6.60
2019-01-15T20:57:43.127Z,6.60
2019-01-15T21:00:40.598Z,6.60
2019-01-15T21:03:49.007Z,6.60
2019-01-15T21:06:31.573Z,6.60
2019-01-15T21:09:20.765Z,6.60
2019-01-15T21:12:15.017Z,6.60
2019-01-15T21:15:03.308Z,6.60
2019-01-15T21:17:44.112Z,6.60
2019-01-15T21:20:39.214Z,6.60
2019-01-15T21:23:22.107Z,6.60
2019-01-15T21:26:08.983Z,6.60
2019-01-15T21:29:09.840Z,6.60
2019-01-15T21:32:09.965Z,6.60
2019-01-15T21:35:00.886Z,6.60
2019-01-15T21:38:04.490Z,6.60
2019-01-15T21:41:00.321Z,6.70
2019-01-15T21:43:38.437Z,6.70
2019-01-15T21:46:26.632Z,6.70
2019-01-15T21:49:15.135Z,6.70
2019-01-15T21:52:02.499Z,6.70
2019-01-15T21:54:53.434Z,6.70
2019-01-15T21:57:41.549Z,6.70
2019-01-15T22:00:29.096Z,6.70
2019-01-15T22:03:15.928Z,6.70
2019-01-15T22:05:56.489Z,6.80
2019-01-15T22:08:44.943Z,6.70
2019-01-15T22:11:48.184Z,6.70
2019-01-15T22:14:37.099Z,6.70
2019-01-15T22:17:14.730Z,6.70
2019-01-15T22:20:01.588Z,6.70
2019-01-15T22:22:48.441Z,6.60
2019-01-15T22:25:44.393Z,6.60
2019-01-15T22:28:31.146Z,6.60
2019-01-15T22:31:17.842Z,6.60
2019-01-15T22:34:04.477Z,6.60
2019-01-15T22:37:07.611Z,6.60
2019-01-15T22:40:26.886Z,6.60
2019-01-15T22:43:09.491Z,6.60
2019-01-15T22:45:56.184Z,6.70
2019-01-15T22:48:43.176Z,6.70
2019-01-15T22:51:36.024Z,6.80
2019-01-15T22:54:23.117Z,6.80
2019-01-15T22:57:05.782Z,6.80
2019-01-15T23:00:09.102Z,6.90
2019-01-15T23:03:12.212Z,6.90
2019-01-15T23:06:02.847Z,6.90
2019-01-15T23:08:50.297Z,6.90
2019-01-15T23:11:31.713Z,7.00
2019-01-15T23:14:25.546Z,7.00
2019-01-15T23:17:03.697Z,7.00
2019-01-15T23:19:46.174Z,7.00
2019-01-15T23:22:38.186Z,7.10
2019-01-15T23:25:27.105Z,7.10
2019-01-15T23:28:20.717Z,7.10
2019-01-15T23:31:27.043Z,7.20
2019-01-15T23:34:15.637Z,7.20
2019-01-15T23:36:58.026Z,7.20
2019-01-15T23:39:57.852Z,7.20
2019-01-15T23:42:44.110Z,7.20
2019-01-15T23:45:38.596Z,7.20
2019-01-15T23:48:44.866Z,7.20
2019-01-15T23:51:31.410Z,7.20
2019-01-15T23:54:11.164Z,7.30
2019-01-15T23:57:04.555Z,7.30
2019-01-15T23:59:48.864Z,7.30
